Time;durP1;ratioP1;P1;durP2;ratioP2;P2;SDS_P1;SDS_P2;PMS_P1;PMS_P2;Temp;Humidity;BMP_temperature;BMP_pressure;BME280_temperature;BME280_humidity;BME280_pressure;Samples;Min_cycle;Max_cycle;Signal;HPM_P1;HPM_P2
2022/08/27 00:01:15;;;;;;;4.85;2.83;;;14.20;99.90;;;;;;5073462;28;20044;-73
2022/08/27 00:03:44;;;;;;;10.60;5.53;;;14.00;99.90;;;;;;5072883;28;20036;-72
2022/08/27 00:06:17;;;;;;;6.13;2.70;;;14.00;99.90;;;;;;5072824;28;20479;-73
2022/08/27 00:08:46;;;;;;;5.82;3.13;;;13.90;99.90;;;;;;5074596;28;20028;-72
2022/08/27 00:11:14;;;;;;;7.28;3.90;;;14.00;99.90;;;;;;5072719;28;20438;-72
2022/08/27 00:13:43;;;;;;;5.13;3.03;;;14.20;99.90;;;;;;5074093;28;20044;-71
2022/08/27 00:16:13;;;;;;;18.25;10.63;;;14.30;99.90;;;;;;5073778;28;20045;-72
2022/08/27 00:18:41;;;;;;;5.53;3.35;;;14.30;99.90;;;;;;5056331;28;20521;-73
2022/08/27 00:21:10;;;;;;;8.95;4.88;;;14.60;99.90;;;;;;5072602;28;20024;-72
2022/08/27 00:23:38;;;;;;;9.07;5.18;;;14.90;99.90;;;;;;5073526;28;20020;-73
2022/08/27 00:26:09;;;;;;;5.80;4.43;;;15.00;99.90;;;;;;5056274;28;20031;-73
2022/08/27 00:28:39;;;;;;;5.88;3.58;;;15.00;99.90;;;;;;5072542;28;20488;-73
2022/08/27 00:31:07;;;;;;;4.97;2.95;;;15.20;99.90;;;;;;5073822;28;20032;-73
2022/08/27 00:33:36;;;;;;;10.38;5.22;;;15.50;99.90;;;;;;5072557;28;20036;-72
2022/08/27 00:36:04;;;;;;;4.15;1.88;;;15.30;99.90;;;;;;5072618;28;20040;-75
2022/08/27 00:38:32;;;;;;;5.25;2.00;;;15.40;99.90;;;;;;5056067;28;20094;-73
2022/08/27 00:41:00;;;;;;;5.50;2.90;;;15.40;99.90;;;;;;5072239;28;20024;-73
2022/08/27 00:43:42;;;;;;;3.55;1.67;;;15.20;99.90;;;;;;5073461;28;20024;-73
2022/08/27 00:46:24;;;;;;;11.88;6.13;;;15.30;99.90;;;;;;5073526;28;20025;-72
2022/08/27 00:48:56;;;;;;;4.53;2.42;;;15.40;99.90;;;;;;5072261;28;20024;-74
2022/08/27 00:51:25;;;;;;;6.78;2.30;;;15.40;99.90;;;;;;5055727;28;20060;-74
2022/08/27 00:53:56;;;;;;;5.25;3.15;;;15.30;99.90;;;;;;5072126;28;20048;-75
2022/08/27 00:56:27;;;;;;;5.35;3.30;;;15.30;99.90;;;;;;5072745;28;20452;-74
2022/08/27 00:58:55;;;;;;;8.18;2.42;;;15.40;99.90;;;;;;5073027;28;20029;-74
2022/08/27 01:01:31;;;;;;;11.60;4.47;;;15.40;99.90;;;;;;5072168;28;20365;-74
2022/08/27 01:04:04;;;;;;;6.75;2.83;;;15.40;99.90;;;;;;5072017;28;20024;-74
2022/08/27 01:06:35;;;;;;;5.15;2.40;;;15.40;99.90;;;;;;5073604;28;20438;-76
2022/08/27 01:09:16;;;;;;;5.63;2.67;;;15.40;99.90;;;;;;5073939;28;20025;-73
2022/08/27 01:11:43;;;;;;;;;;;15.40;99.90;;;;;;5073780;28;20074;-73
2022/08/27 01:14:10;;;;;;;7.70;3.08;;;15.50;99.90;;;;;;5072090;28;19909;-74
2022/08/27 01:16:42;;;;;;;5.78;2.70;;;15.50;99.90;;;;;;5072117;28;20504;-74
2022/08/27 01:19:46;;;;;;;6.20;2.30;;;15.60;99.90;;;;;;5073435;28;20032;-75
2022/08/27 01:22:40;;;;;;;4.60;2.55;;;15.50;99.90;;;;;;5069102;28;20557;-73
2022/08/27 01:25:15;;;;;;;3.55;2.30;;;15.50;99.90;;;;;;5072468;28;20115;-74
2022/08/27 01:27:44;;;;;;;5.15;2.60;;;15.50;99.90;;;;;;5071993;28;20021;-76
2022/08/27 01:30:15;;;;;;;6.20;2.30;;;15.60;99.90;;;;;;5072032;28;20361;-73
2022/08/27 01:32:44;;;;;;;3.67;1.67;;;15.70;99.90;;;;;;5073309;28;20396;-73
2022/08/27 01:35:13;;;;;;;3.45;1.70;;;15.90;99.90;;;;;;5072578;28;20024;-72
2022/08/27 01:37:42;;;;;;;3.20;1.67;;;15.90;99.90;;;;;;5075802;28;20059;-74
2022/08/27 01:40:10;;;;;;;2.70;1.58;;;16.10;99.90;;;;;;5077073;28;20019;-74
2022/08/27 01:42:42;;;;;;;3.53;1.50;;;16.20;99.90;;;;;;5075900;28;20021;-75
2022/08/27 01:45:44;;;;;;;3.67;1.50;;;16.20;99.90;;;;;;5076276;28;20031;-75
2022/08/27 01:48:11;;;;;;;3.17;1.45;;;16.10;99.90;;;;;;5065407;28;20469;-72
2022/08/27 01:50:41;;;;;;;3.30;2.00;;;16.60;99.90;;;;;;5076907;28;20013;-74
2022/08/27 01:53:13;;;;;;;2.53;1.23;;;17.00;99.90;;;;;;5058614;28;20059;-74
2022/08/27 01:55:42;;;;;;;3.83;1.45;;;17.50;99.90;;;;;;5076810;28;20013;-74
2022/08/27 01:58:10;;;;;;;6.57;3.17;;;17.70;99.90;;;;;;5075290;28;20028;-74
2022/08/27 02:00:44;;;;;;;2.55;1.00;;;17.70;99.90;;;;;;5076833;28;20091;-75
2022/08/27 02:03:12;;;;;;;3.22;1.42;;;17.80;99.90;;;;;;5075237;28;20035;-73
2022/08/27 02:05:40;;;;;;;1.90;0.68;;;18.10;99.90;;;;;;5077313;28;20410;-75
2022/08/27 02:08:07;;;;;;;4.72;1.63;;;18.00;99.90;;;;;;5075349;28;20067;-75
2022/08/27 02:10:38;;;;;;;5.38;2.20;;;18.10;99.90;;;;;;5075228;28;20048;-75
2022/08/27 02:13:06;;;;;;;;;;;18.00;99.90;;;;;;5077340;28;20126;-76
2022/08/27 02:15:36;;;;;;;3.95;1.33;;;17.70;99.90;;;;;;5059420;28;19909;-74
2022/08/27 02:18:05;;;;;;;5.35;1.88;;;17.90;99.90;;;;;;5075559;28;20054;-73
2022/08/27 02:20:34;;;;;;;3.25;1.42;;;17.80;99.90;;;;;;5077256;28;20504;-73
2022/08/27 02:23:03;;;;;;;3.10;1.45;;;17.30;99.90;;;;;;5075745;28;20556;-75
2022/08/27 02:25:31;;;;;;;3.72;1.20;;;17.00;99.90;;;;;;5074809;28;20055;-72
2022/08/27 02:27:59;;;;;;;3.28;1.20;;;17.10;99.90;;;;;;5076228;28;20036;-72
2022/08/27 02:30:30;;;;;;;3.45;1.33;;;17.00;99.90;;;;;;5076123;28;20020;-71
2022/08/27 02:32:59;;;;;;;4.43;1.40;;;16.90;99.90;;;;;;5074622;28;20029;-72
2022/08/27 02:35:28;;;;;;;2.65;1.00;;;16.80;99.90;;;;;;5074928;28;20028;-71
2022/08/27 02:37:55;;;;;;;3.90;1.10;;;16.70;99.90;;;;;;5075880;28;20024;-73
2022/08/27 02:40:23;;;;;;;6.13;1.42;;;16.80;99.90;;;;;;5074587;28;20154;-74
2022/08/27 02:42:51;;;;;;;3.67;1.08;;;16.70;99.90;;;;;;5074670;28;20055;-73
2022/08/27 02:45:20;;;;;;;2.50;0.63;;;16.50;99.90;;;;;;5074238;28;20028;-72
2022/08/27 02:47:48;;;;;;;3.25;0.82;;;16.30;99.90;;;;;;5075633;28;20028;-74
2022/08/27 02:50:16;;;;;;;3.70;0.70;;;16.30;99.90;;;;;;5075868;28;20469;-73
2022/08/27 02:52:44;;;;;;;3.63;0.80;;;16.30;99.90;;;;;;5074083;28;20105;-73
2022/08/27 02:55:15;;;;;;;1.02;0.65;;;16.20;99.90;;;;;;5075446;28;20029;-74
2022/08/27 02:57:42;;;;;;;2.97;1.10;;;16.20;99.90;;;;;;5074045;28;20067;-74
2022/08/27 03:00:15;;;;;;;4.20;0.93;;;16.10;99.90;;;;;;5074136;28;20037;-74
2022/08/27 03:02:42;;;;;;;2.47;1.10;;;16.10;99.90;;;;;;5075567;28;20021;-73
2022/08/27 03:05:12;;;;;;;3.35;0.80;;;16.20;99.90;;;;;;5075230;28;20055;-74
2022/08/27 03:07:42;;;;;;;3.17;1.30;;;16.30;99.90;;;;;;5073946;28;20507;-74
2022/08/27 03:10:12;;;;;;;4.30;1.02;;;16.30;99.90;;;;;;5057873;28;20362;-72
2022/08/27 03:12:40;;;;;;;4.63;1.02;;;16.40;99.90;;;;;;5057504;28;20089;-72
2022/08/27 03:15:11;;;;;;;3.35;1.02;;;16.30;99.90;;;;;;5073863;28;20048;-72
2022/08/27 03:20:23;;;;;;;3.15;0.75;;;16.40;99.90;;;;;;5075469;28;20112;-73
2022/08/27 03:22:51;;;;;;;4.15;1.10;;;16.40;99.90;;;;;;5074953;28;20059;-74
2022/08/27 03:25:19;;;;;;;4.18;1.38;;;16.50;99.90;;;;;;5073668;28;20032;-73
2022/08/27 03:27:48;;;;;;;4.57;1.88;;;16.90;99.90;;;;;;5074171;28;20472;-73
2022/08/27 03:30:20;;;;;;;3.78;1.25;;;17.40;99.90;;;;;;5074020;28;20025;-74
2022/08/27 03:32:48;;;;;;;2.22;0.85;;;17.70;99.90;;;;;;5075220;28;20056;-73
2022/08/27 03:35:18;;;;;;;3.17;0.90;;;17.70;99.90;;;;;;5073493;28;20138;-74
2022/08/27 03:37:46;;;;;;;2.45;0.95;;;18.00;99.90;;;;;;5073563;28;20031;-74
2022/08/27 03:40:14;;;;;;;3.92;0.70;;;18.10;99.90;;;;;;5073299;28;20028;-75
2022/08/27 03:42:42;;;;;;;3.95;0.50;;;18.10;99.90;;;;;;5075602;28;20077;-76
2022/08/27 03:45:11;;;;;;;3.70;1.10;;;18.20;99.90;;;;;;5075773;28;20024;-75
2022/08/27 03:47:38;;;;;;;3.47;0.60;;;18.50;99.90;;;;;;5073952;28;20472;-73
2022/08/27 03:50:08;;;;;;;3.10;0.55;;;18.50;99.90;;;;;;5075019;28;20027;-74
2022/08/27 03:52:36;;;;;;;2.40;0.93;;;18.20;99.90;;;;;;5056974;28;20052;-75
2022/08/27 03:55:06;;;;;;;2.67;0.45;;;18.40;99.90;;;;;;5074903;28;20107;-75
2022/08/27 03:57:34;;;;;;;4.32;0.77;;;18.50;99.90;;;;;;5072877;28;20437;-75
2022/08/27 04:00:02;;;;;;;5.97;0.85;;;18.80;99.90;;;;;;5073360;28;20025;-76
2022/08/27 04:02:30;;;;;;;3.38;1.08;;;19.00;99.90;;;;;;5057030;28;20025;-76
2022/08/27 04:04:57;;;;;;;2.35;0.55;;;19.20;99.90;;;;;;5075310;28;20016;-77
2022/08/27 04:07:25;;;;;;;2.70;0.70;;;19.30;99.90;;;;;;5074814;28;20016;-77
2022/08/27 04:09:52;;;;;;;2.28;0.40;;;19.40;99.90;;;;;;5075623;28;20046;-76
2022/08/27 04:12:20;;;;;;;1.98;0.63;;;19.10;99.90;;;;;;5074472;28;20020;-76
2022/08/27 04:14:47;;;;;;;2.00;0.50;;;19.10;99.90;;;;;;5072989;28;20488;-76
2022/08/27 04:17:15;;;;;;;2.38;0.47;;;19.40;99.90;;;;;;5074586;28;20043;-76
2022/08/27 04:19:42;;;;;;;1.88;0.38;;;19.30;99.90;;;;;;5072951;28;20074;-76
2022/08/27 04:22:09;;;;;;;2.35;0.30;;;18.80;99.90;;;;;;5073139;28;20145;-76
2022/08/27 04:24:37;;;;;;;1.35;0.22;;;18.40;99.90;;;;;;5074356;28;20108;-75
2022/08/27 04:27:06;;;;;;;2.47;0.30;;;18.00;99.90;;;;;;5074356;28;20039;-75
2022/08/27 04:29:34;;;;;;;4.75;0.50;;;17.70;99.90;;;;;;5074678;28;20036;-76
2022/08/27 04:32:01;;;;;;;3.00;0.43;;;17.50;99.90;;;;;;5073448;28;20032;-76
2022/08/27 04:34:29;;;;;;;1.85;0.50;;;17.80;99.90;;;;;;5074531;28;20028;-76
2022/08/27 04:36:57;;;;;;;1.58;0.30;;;18.20;99.90;;;;;;5072629;28;20481;-76
2022/08/27 04:39:26;;;;;;;5.07;0.57;;;18.10;99.90;;;;;;5073314;28;20473;-76
2022/08/27 04:41:57;;;;;;;2.83;0.63;;;18.10;99.90;;;;;;5074060;28;20017;-75
2022/08/27 04:44:26;;;;;;;3.20;0.80;;;18.60;99.90;;;;;;5074014;28;20020;-77
2022/08/27 04:47:02;;;;;;;3.63;0.57;;;19.00;99.90;;;;;;5073237;28;20086;-77
2022/08/27 04:49:31;;;;;;;1.90;0.60;;;19.20;99.90;;;;;;5040492;28;20035;-76
2022/08/27 04:52:03;;;;;;;2.13;0.40;;;19.20;99.90;;;;;;5074548;28;20032;-78
2022/08/27 04:54:33;;;;;;;6.32;0.98;;;19.10;99.90;;;;;;5072511;28;20439;-76
2022/08/27 04:57:01;;;;;;;;;;;18.80;99.90;;;;;;5073674;28;20020;-77
2022/08/27 04:59:30;;;;;;;3.33;0.70;;;18.50;99.90;;;;;;5073367;28;19905;-76
2022/08/27 05:02:00;;;;;;;2.60;0.40;;;18.30;99.90;;;;;;5056024;28;20025;-76
2022/08/27 05:04:29;;;;;;;2.17;0.40;;;18.20;99.90;;;;;;5073236;28;20024;-77
2022/08/27 05:06:57;;;;;;;2.03;0.30;;;18.40;99.90;;;;;;5074858;28;20035;-77
2022/08/27 05:09:24;;;;;;;2.20;0.40;;;18.50;99.90;;;;;;5074245;28;20507;-76
2022/08/27 05:11:53;;;;;;;3.40;0.40;;;18.50;99.90;;;;;;5078895;28;20032;-77
2022/08/27 05:14:22;;;;;;;2.20;0.50;;;18.50;99.90;;;;;;5078580;28;20571;-76
2022/08/27 05:16:50;;;;;;;1.63;0.60;;;18.40;99.90;;;;;;5078240;28;20024;-78
2022/08/27 05:19:17;;;;;;;2.67;0.68;;;18.40;99.90;;;;;;5077134;28;20024;-76
2022/08/27 05:21:48;;;;;;;2.22;0.60;;;18.40;99.90;;;;;;5076872;28;20036;-76
2022/08/27 05:24:16;;;;;;;2.95;0.70;;;18.40;99.90;;;;;;5077719;28;20028;-77
2022/08/27 05:26:45;;;;;;;1.50;0.70;;;18.20;99.90;;;;;;5078827;28;20036;-77
2022/08/27 05:29:13;;;;;;;1.08;0.50;;;18.10;99.90;;;;;;5077701;28;20029;-77
2022/08/27 05:31:41;;;;;;;2.50;0.52;;;18.00;99.90;;;;;;5061041;28;20096;-78
2022/08/27 05:34:10;;;;;;;1.27;0.40;;;18.00;99.90;;;;;;5078500;28;20029;-76
2022/08/27 05:36:39;;;;;;;4.28;0.82;;;18.00;99.90;;;;;;5076618;28;20481;-75
2022/08/27 05:39:07;;;;;;;3.10;0.88;;;18.00;99.90;;;;;;5059793;28;20496;-76
2022/08/27 05:41:36;;;;;;;3.42;0.50;;;17.80;99.90;;;;;;5077153;28;20028;-79
2022/08/27 05:44:08;;;;;;;1.30;0.32;;;17.70;99.90;;;;;;5078719;28;20037;-77
2022/08/27 05:46:37;;;;;;;1.73;0.40;;;17.60;99.90;;;;;;5077359;28;20119;-75
2022/08/27 05:49:05;;;;;;;2.58;0.40;;;17.40;99.90;;;;;;5076878;28;20055;-77
2022/08/27 05:51:35;;;;;;;4.70;0.63;;;17.40;99.90;;;;;;5076339;28;20024;-76
2022/08/27 05:54:06;;;;;;;1.65;0.20;;;17.10;99.90;;;;;;5077588;28;20094;-81
2022/08/27 05:56:35;;;;;;;3.22;0.60;;;17.10;99.90;;;;;;5077162;28;20152;-78
2022/08/27 06:01:55;;;;;;;2.63;0.43;;;17.00;99.90;;;;;;5078482;28;20024;-78
2022/08/27 06:04:24;;;;;;;2.55;0.40;;;17.00;99.90;;;;;;5076742;28;20028;-81
2022/08/27 06:06:52;;;;;;;1.95;0.40;;;17.00;99.90;;;;;;5077677;28;20385;-79
2022/08/27 06:09:27;;;;;;;1.38;0.30;;;16.90;99.90;;;;;;5075765;28;20024;-78
2022/08/27 06:11:59;;;;;;;2.28;0.30;;;16.90;99.90;;;;;;5077834;28;20036;-78
2022/08/27 06:14:30;;;;;;;3.28;0.20;;;16.80;99.90;;;;;;5076312;28;20478;-79
2022/08/27 06:17:00;;;;;;;3.65;0.30;;;16.80;99.90;;;;;;5076988;28;20012;-74
2022/08/27 06:19:27;;;;;;;1.03;0.30;;;16.70;99.90;;;;;;5077227;28;20473;-79
2022/08/27 06:21:58;;;;;;;1.23;0.30;;;16.60;99.90;;;;;;5077086;28;20281;-78
2022/08/27 06:24:26;;;;;;;2.15;0.40;;;16.60;99.90;;;;;;5076446;28;20029;-77
2022/08/27 06:26:53;;;;;;;0.77;0.20;;;16.50;99.90;;;;;;5075753;28;20021;-77
2022/08/27 06:29:22;;;;;;;1.73;0.47;;;16.50;99.90;;;;;;5075719;28;20032;-76
2022/08/27 06:31:51;;;;;;;0.98;0.20;;;16.40;99.90;;;;;;5075575;28;20031;-76
2022/08/27 06:34:19;;;;;;;2.90;0.52;;;16.30;99.90;;;;;;5075396;28;20025;-76
2022/08/27 06:36:46;;;;;;;3.47;0.60;;;16.30;99.90;;;;;;5075057;28;20388;-81
2022/08/27 06:39:14;;;;;;;2.40;0.32;;;16.20;99.90;;;;;;5076433;28;20362;-77
2022/08/27 06:41:43;;;;;;;2.58;0.30;;;16.20;99.90;;;;;;5074588;28;20025;-75
2022/08/27 06:44:12;;;;;;;2.55;0.47;;;16.10;99.90;;;;;;5058510;28;20107;-77
2022/08/27 06:46:39;;;;;;;2.08;0.45;;;16.10;99.90;;;;;;5075236;28;20550;-77
2022/08/27 06:49:07;;;;;;;2.55;0.40;;;16.00;99.90;;;;;;5076865;28;20105;-77
2022/08/27 06:51:37;;;;;;;3.03;0.50;;;15.90;99.90;;;;;;5075041;28;20077;-80
2022/08/27 06:54:08;;;;;;;1.45;0.30;;;15.90;99.90;;;;;;5076251;28;20427;-76
2022/08/27 06:56:36;;;;;;;2.75;0.40;;;15.80;99.90;;;;;;5057849;28;20024;-76
2022/08/27 06:59:08;;;;;;;2.03;0.40;;;15.70;99.90;;;;;;5076526;28;20028;-75
2022/08/27 07:01:39;;;;;;;1.88;0.52;;;15.60;99.90;;;;;;5075554;28;20040;-76
2022/08/27 07:04:11;;;;;;;6.70;1.00;;;15.50;99.90;;;;;;5077027;28;20028;-76
2022/08/27 07:06:39;;;;;;;1.65;0.47;;;15.40;99.90;;;;;;5058730;28;20100;-76
2022/08/27 07:09:06;;;;;;;1.92;0.50;;;15.30;99.90;;;;;;5074676;28;20033;-76
2022/08/27 07:11:34;;;;;;;3.70;0.50;;;15.20;99.90;;;;;;5074432;28;20074;-72
2022/08/27 07:14:02;;;;;;;3.30;1.02;;;15.20;99.90;;;;;;5058069;28;20033;-79
2022/08/27 07:16:30;;;;;;;1.98;0.40;;;15.10;99.90;;;;;;5074515;28;20025;-76
2022/08/27 07:19:00;;;;;;;2.70;0.60;;;15.10;99.90;;;;;;5075859;28;20020;-75
2022/08/27 07:21:29;;;;;;;3.83;0.70;;;15.00;99.90;;;;;;5074676;28;20092;-76
2022/08/27 07:24:03;;;;;;;2.78;0.73;;;14.90;99.90;;;;;;5074896;28;20033;-76
2022/08/27 07:26:32;;;;;;;3.50;0.80;;;14.90;99.90;;;;;;5074698;28;20020;-75
2022/08/27 07:28:59;;;;;;;2.28;0.68;;;14.80;99.90;;;;;;5076157;28;20496;-75
2022/08/27 07:31:27;;;;;;;3.15;0.80;;;14.70;99.90;;;;;;5074387;28;20032;-75
2022/08/27 07:33:55;;;;;;;3.85;1.02;;;14.70;99.90;;;;;;5073472;28;20025;-75
2022/08/27 07:36:23;;;;;;;4.32;1.15;;;14.60;99.90;;;;;;5075112;28;20024;-75
2022/08/27 07:38:54;;;;;;;2.92;1.05;;;14.50;99.90;;;;;;5074590;28;20101;-76
2022/08/27 07:41:20;;;;;;;;;;;14.40;99.90;;;;;;5074243;28;20107;-76
2022/08/27 07:46:34;;;;;;;2.88;1.30;;;14.30;99.90;;;;;;5075668;28;20078;-75
2022/08/27 07:49:02;;;;;;;5.15;1.52;;;14.20;99.90;;;;;;5057294;28;20025;-76
2022/08/27 07:51:31;;;;;;;5.45;1.77;;;14.10;99.90;;;;;;5075713;28;20023;-74
2022/08/27 07:53:59;;;;;;;4.05;1.40;;;14.10;99.90;;;;;;5073413;28;20563;-76
2022/08/27 07:56:28;;;;;;;5.13;1.77;;;14.00;99.90;;;;;;5075208;28;20361;-76
2022/08/27 07:58:55;;;;;;;6.30;1.70;;;13.90;99.90;;;;;;5074021;28;20107;-76
2022/08/27 08:01:24;;;;;;;10.98;3.88;;;13.80;99.90;;;;;;5073948;28;20397;-77
2022/08/27 08:03:52;;;;;;;4.35;1.55;;;14.00;99.90;;;;;;5073317;28;20028;-75
2022/08/27 08:06:19;;;;;;;2.78;1.23;;;13.90;99.90;;;;;;5074719;28;20020;-75
2022/08/27 08:08:46;;;;;;;2.70;1.20;;;13.80;99.90;;;;;;5073286;28;20091;-75
2022/08/27 08:11:17;;;;;;;4.75;1.60;;;13.80;99.90;;;;;;5073022;28;20028;-75
2022/08/27 08:13:46;;;;;;;6.30;2.95;;;13.70;99.90;;;;;;5056932;28;20029;-75
2022/08/27 08:16:14;;;;;;;3.58;1.60;;;13.70;99.90;;;;;;5073365;28;20493;-75
2022/08/27 08:18:42;;;;;;;4.00;1.67;;;13.60;99.90;;;;;;5074631;28;20444;-77
2022/08/27 08:21:12;;;;;;;4.68;1.80;;;13.60;99.90;;;;;;5074502;28;20013;-76
2022/08/27 08:23:41;;;;;;;4.93;2.28;;;13.60;99.90;;;;;;5073418;28;20088;-76
2022/08/27 08:26:11;;;;;;;5.65;2.42;;;13.50;99.90;;;;;;5073408;28;20032;-75
2022/08/27 08:28:39;;;;;;;6.40;3.03;;;13.50;99.90;;;;;;5074660;28;20020;-79
2022/08/27 08:31:07;;;;;;;6.78;3.47;;;13.50;99.90;;;;;;5074377;28;20085;-76
2022/08/27 08:33:35;;;;;;;6.05;3.00;;;13.50;99.90;;;;;;5074051;28;20020;-75
2022/08/27 08:36:11;;;;;;;6.70;3.97;;;13.50;99.90;;;;;;5056905;28;20029;-76
2022/08/27 08:38:40;;;;;;;8.98;3.92;;;13.50;99.90;;;;;;5073097;28;20032;-76
2022/08/27 08:41:38;;;;;;;5.97;4.13;;;13.40;99.90;;;;;;5074187;28;20029;-76
2022/08/27 08:44:30;;;;;;;8.50;4.55;;;13.40;99.90;;;;;;5072660;28;20020;-76
2022/08/27 08:47:11;;;;;;;9.82;4.88;;;13.40;99.90;;;;;;5074318;28;20103;-75
2022/08/27 08:49:46;;;;;;;7.82;4.78;;;13.30;99.90;;;;;;5074419;28;20025;-74
2022/08/27 08:52:28;;;;;;;6.70;4.80;;;13.30;99.90;;;;;;5074275;28;20068;-75
2022/08/27 08:55:17;;;;;;;7.82;5.20;;;13.30;99.90;;;;;;5072989;28;20044;-76
2022/08/27 08:58:20;;;;;;;9.07;5.25;;;13.30;99.90;;;;;;5073060;28;20024;-73
2022/08/27 09:00:54;;;;;;;7.57;3.88;;;13.30;99.90;;;;;;5073348;28;20390;-75
2022/08/27 09:03:22;;;;;;;7.13;3.92;;;13.20;99.90;;;;;;5074517;28;20052;-75
2022/08/27 09:06:00;;;;;;;10.10;5.85;;;13.20;99.90;;;;;;5074097;28;20024;-74
2022/08/27 09:08:39;;;;;;;7.45;4.70;;;13.10;99.90;;;;;;5073320;28;20427;-77
2022/08/27 09:11:34;;;;;;;7.43;5.18;;;13.10;99.90;;;;;;5075090;28;20099;-76
2022/08/27 09:14:20;;;;;;;8.93;5.57;;;13.00;99.90;;;;;;5072702;28;20031;-76
2022/08/27 09:16:48;;;;;;;7.22;4.05;;;13.00;99.90;;;;;;5073163;28;20499;-76
2022/08/27 09:19:16;;;;;;;7.53;3.97;;;13.00;99.90;;;;;;5073037;28;20070;-75
2022/08/27 09:21:48;;;;;;;6.72;4.65;;;12.90;99.90;;;;;;5056542;28;20089;-75
2022/08/27 09:24:27;;;;;;;9.90;5.13;;;12.80;99.90;;;;;;5074479;28;20017;-74
2022/08/27 09:26:55;;;;;;;9.32;5.50;;;12.80;99.90;;;;;;5073056;28;20044;-75
2022/08/27 09:29:27;;;;;;;8.15;5.05;;;12.80;99.90;;;;;;5072431;28;20025;-75
2022/08/27 09:32:04;;;;;;;7.50;5.20;;;12.80;99.90;;;;;;5074412;28;20025;-74
2022/08/27 09:34:38;;;;;;;10.02;5.28;;;12.70;99.90;;;;;;5072774;28;20128;-75
2022/08/27 09:37:19;;;;;;;8.07;4.97;;;12.70;99.90;;;;;;5074048;28;20358;-75
2022/08/27 09:40:26;;;;;;;5.40;4.60;;;12.70;99.90;;;;;;5074484;28;20107;-75
2022/08/27 09:42:57;;;;;;;6.97;4.63;;;12.60;99.90;;;;;;5073905;28;20130;-74
2022/08/27 09:45:28;;;;;;;6.22;4.70;;;12.60;99.90;;;;;;5072326;28;20027;-73
2022/08/27 09:48:21;;;;;;;9.18;5.68;;;12.60;99.90;;;;;;5073466;28;20082;-73
2022/08/27 09:51:13;;;;;;;7.95;4.78;;;12.60;99.90;;;;;;5072233;28;20025;-75
2022/08/27 09:53:51;;;;;;;7.53;4.38;;;12.60;99.90;;;;;;5073408;28;20040;-74
2022/08/27 09:56:31;;;;;;;7.80;4.97;;;12.60;99.90;;;;;;5074919;28;20052;-73
2022/08/27 09:59:11;;;;;;;;;;;12.60;99.90;;;;;;5076552;28;20024;-74
2022/08/27 10:02:15;;;;;;;6.20;4.65;;;12.60;99.90;;;;;;5076214;28;19908;-74
2022/08/27 10:04:49;;;;;;;7.13;4.80;;;12.60;99.90;;;;;;5064530;28;20134;-74
2022/08/27 10:07:37;;;;;;;7.65;4.78;;;12.50;99.90;;;;;;5075236;28;20025;-73
2022/08/27 10:10:37;;;;;;;7.57;4.78;;;12.50;99.90;;;;;;5075822;28;20052;-73
2022/08/27 10:13:19;;;;;;;6.38;4.85;;;12.40;99.90;;;;;;5075411;28;20025;-75
2022/08/27 10:16:06;;;;;;;7.13;5.18;;;12.40;99.90;;;;;;5075608;28;20052;-74
2022/08/27 10:18:51;;;;;;;6.95;4.32;;;12.40;99.90;;;;;;5077396;28;20024;-74
2022/08/27 10:21:24;;;;;;;7.15;4.47;;;12.40;99.90;;;;;;5076745;28;20028;-76
2022/08/27 10:24:26;;;;;;;9.10;5.00;;;12.40;99.90;;;;;;5077199;28;20443;-76
2022/08/27 10:27:13;;;;;;;6.53;4.25;;;12.40;99.90;;;;;;5075906;28;20443;-77
2022/08/27 10:30:07;;;;;;;8.32;5.53;;;12.30;99.90;;;;;;5077434;28;20032;-77
2022/08/27 10:32:43;;;;;;;9.30;5.45;;;12.40;99.90;;;;;;5075790;28;20115;-76
2022/08/27 10:35:25;;;;;;;9.70;5.95;;;12.40;99.90;;;;;;5076771;28;20024;-76
2022/08/27 10:38:07;;;;;;;9.98;5.40;;;12.40;99.90;;;;;;5075469;28;20028;-75
2022/08/27 10:40:51;;;;;;;9.57;6.07;;;12.40;99.90;;;;;;5077044;28;20411;-75
2022/08/27 10:43:38;;;;;;;8.07;5.53;;;12.40;99.90;;;;;;5076856;28;20058;-75
2022/08/27 10:46:28;;;;;;;10.20;5.80;;;12.30;99.90;;;;;;5076946;28;20031;-75
2022/08/27 10:49:28;;;;;;;10.23;6.00;;;12.30;99.90;;;;;;5047499;28;20511;-78
2022/08/27 10:52:01;;;;;;;12.50;6.63;;;12.30;99.90;;;;;;5075065;28;20032;-75
2022/08/27 10:54:38;;;;;;;11.98;6.82;;;12.30;99.90;;;;;;5075153;28;20025;-77
2022/08/27 10:57:32;;;;;;;9.85;5.97;;;12.20;99.90;;;;;;5076121;28;20025;-77
2022/08/27 11:00:12;;;;;;;8.50;5.80;;;12.30;99.90;;;;;;5059263;28;20396;-77
2022/08/27 11:02:43;;;;;;;10.18;7.07;;;12.20;99.90;;;;;;5077569;28;20028;-78
2022/08/27 11:05:30;;;;;;;10.88;6.57;;;12.20;99.90;;;;;;5077433;28;20025;-76
2022/08/27 11:08:07;;;;;;;10.35;6.40;;;12.30;99.90;;;;;;5075487;28;20456;-75
2022/08/27 11:11:03;;;;;;;12.55;6.63;;;12.30;99.90;;;;;;5076026;28;20029;-76
2022/08/27 11:13:38;;;;;;;14.65;9.73;;;12.30;99.90;;;;;;5074965;28;20492;-77
2022/08/27 11:16:39;;;;;;;13.15;9.15;;;12.40;99.90;;;;;;5075654;28;20281;-76
2022/08/27 11:19:32;;;;;;;11.05;8.57;;;12.40;99.90;;;;;;5075688;28;20032;-76
2022/08/27 11:22:09;;;;;;;12.18;7.88;;;12.60;99.90;;;;;;5034284;28;20036;-78
2022/08/27 11:25:03;;;;;;;9.70;7.78;;;12.60;99.90;;;;;;5076135;28;20457;-78
2022/08/27 11:27:33;;;;;;;10.07;8.18;;;12.70;99.90;;;;;;5074702;28;20033;-79
2022/08/27 11:30:15;;;;;;;11.60;7.97;;;12.80;99.90;;;;;;5077082;28;20067;-79
2022/08/27 11:32:54;;;;;;;12.20;8.13;;;12.80;99.90;;;;;;5077617;28;20028;-75
2022/08/27 11:35:27;;;;;;;12.43;6.93;;;12.90;99.90;;;;;;5076004;28;20070;-76
2022/08/27 11:38:16;;;;;;;11.65;7.68;;;12.80;99.90;;;;;;5074279;28;20484;-75
2022/08/27 11:41:13;;;;;;;12.50;7.65;;;12.90;99.90;;;;;;5073810;28;20028;-73
2022/08/27 11:43:43;;;;;;;11.90;8.23;;;13.00;99.90;;;;;;5075200;28;20342;-72
2022/08/27 11:46:11;;;;;;;11.93;6.22;;;13.00;99.90;;;;;;5074959;28;20024;-73
2022/08/27 11:48:42;;;;;;;10.27;5.10;;;13.00;99.90;;;;;;5074911;28;20025;-72
2022/08/27 11:51:27;;;;;;;9.52;5.78;;;13.00;99.90;;;;;;5074724;28;20020;-72
2022/08/27 11:54:01;;;;;;;4.95;3.22;;;13.00;99.90;;;;;;5074386;28;20036;-73
2022/08/27 11:56:35;;;;;;;6.07;3.42;;;13.00;99.90;;;;;;5074603;28;20417;-73
2022/08/27 11:59:31;;;;;;;5.63;2.60;;;13.00;99.90;;;;;;5074896;28;20500;-72
2022/08/27 12:02:28;;;;;;;4.20;2.00;;;13.10;99.90;;;;;;5073169;28;20021;-72
2022/08/27 12:05:18;;;;;;;4.20;1.83;;;13.00;99.90;;;;;;5073197;28;20505;-73
2022/08/27 12:07:50;;;;;;;4.23;1.63;;;13.10;99.90;;;;;;5061489;28;20506;-75
2022/08/27 12:10:42;;;;;;;4.45;1.92;;;13.10;99.90;;;;;;5074212;28;20029;-73
2022/08/27 12:13:25;;;;;;;4.30;2.42;;;13.10;99.90;;;;;;5073197;28;20439;-71
2022/08/27 12:16:11;;;;;;;4.75;2.47;;;13.10;99.90;;;;;;5073117;28;20024;-73
2022/08/27 12:19:06;;;;;;;5.95;2.40;;;13.00;99.90;;;;;;5072233;28;20025;-72
2022/08/27 12:22:06;;;;;;;6.75;2.72;;;13.10;99.90;;;;;;5072717;28;20028;-72
2022/08/27 12:24:50;;;;;;;5.53;2.63;;;13.10;99.90;;;;;;5056182;28;20024;-72
2022/08/27 12:27:30;;;;;;;6.90;3.20;;;13.00;99.90;;;;;;5074260;28;20025;-74
2022/08/27 12:30:19;;;;;;;7.93;3.30;;;13.00;99.90;;;;;;5074586;28;20027;-73
2022/08/27 12:32:51;;;;;;;6.82;3.10;;;13.00;99.90;;;;;;5073099;28;20791;-72
2022/08/27 12:35:41;;;;;;;6.03;3.17;;;13.00;99.90;;;;;;5056560;28;20085;-72
2022/08/27 12:38:38;;;;;;;5.70;3.08;;;13.00;99.90;;;;;;5066071;28;20492;-73
2022/08/27 12:41:08;;;;;;;6.18;3.05;;;13.00;99.90;;;;;;5068608;28;20032;-73
2022/08/27 12:43:42;;;;;;;5.38;2.95;;;13.00;99.90;;;;;;5072945;28;20169;-71
2022/08/27 12:46:17;;;;;;;5.03;2.42;;;13.00;99.90;;;;;;5073902;28;20082;-71
2022/08/27 12:48:46;;;;;;;;;;;13.10;99.90;;;;;;5072771;28;20491;-72
2022/08/27 12:51:25;;;;;;;5.30;2.60;;;13.00;99.90;;;;;;5072304;28;19905;-72
2022/08/27 12:53:58;;;;;;;4.28;2.65;;;13.00;99.90;;;;;;5073343;28;20063;-73
2022/08/27 12:56:51;;;;;;;4.35;2.78;;;12.90;99.90;;;;;;5072282;28;20020;-71
2022/08/27 12:59:21;;;;;;;6.18;2.67;;;12.80;99.90;;;;;;5074304;28;20362;-73
2022/08/27 13:01:54;;;;;;;6.55;3.17;;;12.70;99.90;;;;;;5073780;28;20028;-74
2022/08/27 13:04:27;;;;;;;7.05;3.05;;;12.70;99.90;;;;;;5072147;28;20029;-72
2022/08/27 13:06:55;;;;;;;7.55;3.60;;;12.60;99.90;;;;;;5072327;28;20021;-72
2022/08/27 13:09:28;;;;;;;9.10;5.13;;;12.50;99.90;;;;;;5073615;28;20028;-72
2022/08/27 13:11:56;;;;;;;9.65;6.38;;;12.50;99.90;;;;;;5073747;28;20481;-72
2022/08/27 13:14:26;;;;;;;7.50;6.70;;;12.40;99.90;;;;;;5073378;28;20020;-72
2022/08/27 13:17:00;;;;;;;12.63;7.20;;;12.40;99.90;;;;;;5072120;28;20472;-73
2022/08/27 13:19:30;;;;;;;12.20;6.32;;;12.40;99.90;;;;;;5072151;28;20020;-73
2022/08/27 13:22:00;;;;;;;9.52;6.65;;;12.30;99.90;;;;;;5072126;28;20361;-72
2022/08/27 13:24:36;;;;;;;6.78;6.07;;;12.20;99.90;;;;;;5073064;28;20070;-72
2022/08/27 13:27:05;;;;;;;6.90;5.50;;;12.10;99.90;;;;;;5073580;28;20028;-73
2022/08/27 13:29:33;;;;;;;6.13;5.35;;;12.00;99.90;;;;;;5073235;28;20029;-72